Pagina principale
METAR-TAF:

METAR-TAF

Aeroporti :

Aeroporto Internazionale di Baghdad

Baghdad, Iraq

latitudine: 33-15-45N, longitudine: 44-14-04E, altezza: 35 m

Osservazione

Il bollettino è stato emesso 38 minuti fa, alle 02:00 UTC
Vento 4 kt da ovest/nord-ovest
Temperature 6°C
Umidità 81%
Pressione 1020 hPa
Visibilità 10 km o più
nessuna nube inferiore a 1500 m e nessun cumulonembo

METAR: ORBI 240200Z 30004KT CAVOK 06/03 Q1020 NOSIG

Ora: 05:38 (02:38 UTC)

Previsione

Il bollettino è stato emesso 3 ore e 38 minuti fa, alle 23:00 UTC
Previsione valida dal 24 alle 00 UTC al 24 alle 24 UTC
Vento 3 kt da direzioni variabili
Visibilità: 8000 m
Evoluzione graduale
dal 24 alle 06 UTC al 24 alle 08 UTC
Vento 8 kt da sud-est

TAF: ORBI 232300Z 2400/2424 VRB03KT 8000 NSC BECMG 2406/2408 13008KT

Osservazioni e previsioni meteorologiche di più di 4000 aeroporti (messaggi METAR e TAF).

Le stazioni disponibili sono rappresentate dai dischi gialli e rossi sulla carta.

Puntare il mouse per vedere il nome della stazione.

Clicca sopra per visualizzare le osservazioni e previsioni meteorologiche.

Per cambiare la mappa : fare clic sui pulsanti verdi con una croce nera per ingrandire, il pulsante verde con un trattino per diminuire, o sulla freccia verde per le mappe adiacenti.


METAR-TAF: